Terminal Aerodrome Forecast
Issued by NWS Des Moines, IA

Home | Current Version | Previous Version | Text Only | Print | Product List | Glossary On
Versions: 1 2 3 4 5 6 7 8 9 10 11 12 13 14 15 16
000
FTUS43 KDMX 200520
TAFDSM
TAF
KDSM 200520Z 2006/2106 18010KT P6SM SCT100 BKN250
     FM201200 19010KT P6SM BKN050 OVC100
     FM201800 20012KT P6SM VCSH SCT020 BKN050
     FM202200 19010KT P6SM SHRA VCTS SCT020CB BKN035=

USA.gov is the U.S. government's official web portal to all federal, state and local government web resources and services.